sensor_id;sensor_type;location;lat;lon;timestamp;temperature;humidity
7576;DHT22;3829;50.798;4.358;2023-03-16T00:00:56;6.40;99.90
7576;DHT22;3829;50.798;4.358;2023-03-16T00:03:22;6.40;99.90
7576;DHT22;3829;50.798;4.358;2023-03-16T00:05:52;6.50;99.90
7576;DHT22;3829;50.798;4.358;2023-03-16T00:08:18;6.50;99.90
7576;DHT22;3829;50.798;4.358;2023-03-16T00:10:45;6.50;99.90
7576;DHT22;3829;50.798;4.358;2023-03-16T00:13:16;6.70;99.90
7576;DHT22;3829;50.798;4.358;2023-03-16T00:15:52;6.70;99.90
7576;DHT22;3829;50.798;4.358;2023-03-16T00:18:18;6.70;99.90
7576;DHT22;3829;50.798;4.358;2023-03-16T00:20:44;6.70;99.90
7576;DHT22;3829;50.798;4.358;2023-03-16T00:23:14;6.70;99.90
7576;DHT22;3829;50.798;4.358;2023-03-16T00:25:39;6.70;99.90
7576;DHT22;3829;50.798;4.358;2023-03-16T00:28:06;6.70;99.90
7576;DHT22;3829;50.798;4.358;2023-03-16T00:30:31;6.70;99.90
7576;DHT22;3829;50.798;4.358;2023-03-16T00:32:57;6.70;99.90
7576;DHT22;3829;50.798;4.358;2023-03-16T00:35:24;6.70;99.90
7576;DHT22;3829;50.798;4.358;2023-03-16T00:37:49;6.80;99.90
7576;DHT22;3829;50.798;4.358;2023-03-16T00:40:15;6.80;99.90
7576;DHT22;3829;50.798;4.358;2023-03-16T00:42:41;6.90;99.90
7576;DHT22;3829;50.798;4.358;2023-03-16T00:45:07;6.80;99.90
7576;DHT22;3829;50.798;4.358;2023-03-16T00:47:33;6.90;99.90
7576;DHT22;3829;50.798;4.358;2023-03-16T00:50:00;6.90;99.90
7576;DHT22;3829;50.798;4.358;2023-03-16T00:52:27;6.90;99.90
7576;DHT22;3829;50.798;4.358;2023-03-16T00:54:53;6.90;99.90
7576;DHT22;3829;50.798;4.358;2023-03-16T00:57:21;6.90;99.90
7576;DHT22;3829;50.798;4.358;2023-03-16T00:59:47;6.90;99.90
7576;DHT22;3829;50.798;4.358;2023-03-16T01:02:15;6.90;99.90
7576;DHT22;3829;50.798;4.358;2023-03-16T01:04:41;6.90;99.90
7576;DHT22;3829;50.798;4.358;2023-03-16T01:07:11;7.00;99.90
7576;DHT22;3829;50.798;4.358;2023-03-16T01:09:38;6.90;99.90
7576;DHT22;3829;50.798;4.358;2023-03-16T01:12:05;6.90;99.90
7576;DHT22;3829;50.798;4.358;2023-03-16T01:14:33;6.90;99.90
7576;DHT22;3829;50.798;4.358;2023-03-16T01:17:03;7.00;99.90
7576;DHT22;3829;50.798;4.358;2023-03-16T01:19:29;7.00;99.90
7576;DHT22;3829;50.798;4.358;2023-03-16T01:21:58;7.00;99.90
7576;DHT22;3829;50.798;4.358;2023-03-16T01:24:24;7.10;99.90
7576;DHT22;3829;50.798;4.358;2023-03-16T01:26:49;7.10;99.90
7576;DHT22;3829;50.798;4.358;2023-03-16T01:29:15;7.10;99.90
7576;DHT22;3829;50.798;4.358;2023-03-16T01:31:40;7.10;99.90
7576;DHT22;3829;50.798;4.358;2023-03-16T01:34:06;7.10;99.90
7576;DHT22;3829;50.798;4.358;2023-03-16T01:36:31;7.10;99.90
7576;DHT22;3829;50.798;4.358;2023-03-16T01:38:58;7.10;99.90
7576;DHT22;3829;50.798;4.358;2023-03-16T01:41:24;7.10;99.90
7576;DHT22;3829;50.798;4.358;2023-03-16T01:43:51;7.00;99.90
7576;DHT22;3829;50.798;4.358;2023-03-16T01:46:25;7.00;99.90
7576;DHT22;3829;50.798;4.358;2023-03-16T01:49:11;7.00;99.90
7576;DHT22;3829;50.798;4.358;2023-03-16T01:54:27;6.90;99.90
7576;DHT22;3829;50.798;4.358;2023-03-16T01:57:15;6.80;99.90
7576;DHT22;3829;50.798;4.358;2023-03-16T01:59:47;6.80;99.90
7576;DHT22;3829;50.798;4.358;2023-03-16T02:02:15;6.90;99.90
7576;DHT22;3829;50.798;4.358;2023-03-16T02:04:49;6.80;99.90
7576;DHT22;3829;50.798;4.358;2023-03-16T02:07:20;6.80;99.90
7576;DHT22;3829;50.798;4.358;2023-03-16T02:09:49;6.80;99.90
7576;DHT22;3829;50.798;4.358;2023-03-16T02:12:17;6.70;99.90
7576;DHT22;3829;50.798;4.358;2023-03-16T02:14:47;6.60;99.90
7576;DHT22;3829;50.798;4.358;2023-03-16T02:17:14;6.60;99.90
7576;DHT22;3829;50.798;4.358;2023-03-16T02:22:20;6.70;99.90
7576;DHT22;3829;50.798;4.358;2023-03-16T02:24:52;6.60;99.90
7576;DHT22;3829;50.798;4.358;2023-03-16T02:27:31;6.60;99.90
7576;DHT22;3829;50.798;4.358;2023-03-16T02:30:14;6.60;99.90
7576;DHT22;3829;50.798;4.358;2023-03-16T02:32:40;6.60;99.90
7576;DHT22;3829;50.798;4.358;2023-03-16T02:35:08;6.60;99.90
7576;DHT22;3829;50.798;4.358;2023-03-16T02:37:34;6.60;99.90
7576;DHT22;3829;50.798;4.358;2023-03-16T02:40:00;6.60;99.90
7576;DHT22;3829;50.798;4.358;2023-03-16T02:42:28;6.60;99.90
7576;DHT22;3829;50.798;4.358;2023-03-16T02:44:56;6.60;99.90
7576;DHT22;3829;50.798;4.358;2023-03-16T02:47:28;6.60;99.90
7576;DHT22;3829;50.798;4.358;2023-03-16T02:49:55;6.60;99.90
7576;DHT22;3829;50.798;4.358;2023-03-16T02:52:21;6.50;99.90
7576;DHT22;3829;50.798;4.358;2023-03-16T02:54:46;6.60;99.90
7576;DHT22;3829;50.798;4.358;2023-03-16T02:57:12;6.50;99.90
7576;DHT22;3829;50.798;4.358;2023-03-16T02:59:38;6.50;99.90
7576;DHT22;3829;50.798;4.358;2023-03-16T03:02:03;6.60;99.90
7576;DHT22;3829;50.798;4.358;2023-03-16T03:04:29;6.60;99.90
7576;DHT22;3829;50.798;4.358;2023-03-16T03:06:54;6.60;99.90
7576;DHT22;3829;50.798;4.358;2023-03-16T03:09:20;6.60;99.90
7576;DHT22;3829;50.798;4.358;2023-03-16T03:11:46;6.60;99.90
7576;DHT22;3829;50.798;4.358;2023-03-16T03:14:11;6.60;99.90
7576;DHT22;3829;50.798;4.358;2023-03-16T03:16:37;6.60;99.90
7576;DHT22;3829;50.798;4.358;2023-03-16T03:19:03;6.60;99.90
7576;DHT22;3829;50.798;4.358;2023-03-16T03:21:28;6.60;99.90
7576;DHT22;3829;50.798;4.358;2023-03-16T03:23:54;6.60;99.90
7576;DHT22;3829;50.798;4.358;2023-03-16T03:26:20;6.60;99.90
7576;DHT22;3829;50.798;4.358;2023-03-16T03:28:46;6.60;99.90
7576;DHT22;3829;50.798;4.358;2023-03-16T03:31:20;6.60;99.90
7576;DHT22;3829;50.798;4.358;2023-03-16T03:33:46;6.60;99.90
7576;DHT22;3829;50.798;4.358;2023-03-16T03:36:12;6.60;99.90
7576;DHT22;3829;50.798;4.358;2023-03-16T03:38:38;6.70;99.90
7576;DHT22;3829;50.798;4.358;2023-03-16T03:41:04;6.70;99.90
7576;DHT22;3829;50.798;4.358;2023-03-16T03:43:33;6.70;99.90
7576;DHT22;3829;50.798;4.358;2023-03-16T03:45:59;6.70;99.90
7576;DHT22;3829;50.798;4.358;2023-03-16T03:48:26;6.80;99.90
7576;DHT22;3829;50.798;4.358;2023-03-16T03:50:52;6.80;99.90
7576;DHT22;3829;50.798;4.358;2023-03-16T03:53:18;6.70;99.90
7576;DHT22;3829;50.798;4.358;2023-03-16T03:55:44;6.70;99.90
7576;DHT22;3829;50.798;4.358;2023-03-16T03:58:10;6.70;99.90
7576;DHT22;3829;50.798;4.358;2023-03-16T04:00:36;6.70;99.90
7576;DHT22;3829;50.798;4.358;2023-03-16T04:03:02;6.80;99.90
7576;DHT22;3829;50.798;4.358;2023-03-16T04:05:28;6.70;99.90
7576;DHT22;3829;50.798;4.358;2023-03-16T04:07:54;6.80;99.90
7576;DHT22;3829;50.798;4.358;2023-03-16T04:10:26;6.80;99.90
7576;DHT22;3829;50.798;4.358;2023-03-16T04:12:52;6.80;99.90
7576;DHT22;3829;50.798;4.358;2023-03-16T04:15:18;6.80;99.90
7576;DHT22;3829;50.798;4.358;2023-03-16T04:17:43;6.80;99.90
7576;DHT22;3829;50.798;4.358;2023-03-16T04:20:10;6.80;99.90
7576;DHT22;3829;50.798;4.358;2023-03-16T04:22:41;6.80;99.90
7576;DHT22;3829;50.798;4.358;2023-03-16T04:25:10;6.80;99.90
7576;DHT22;3829;50.798;4.358;2023-03-16T04:27:36;6.80;99.90
7576;DHT22;3829;50.798;4.358;2023-03-16T04:30:07;6.80;99.90
7576;DHT22;3829;50.798;4.358;2023-03-16T04:32:36;6.80;99.90
7576;DHT22;3829;50.798;4.358;2023-03-16T04:35:01;6.80;99.90
7576;DHT22;3829;50.798;4.358;2023-03-16T04:37:27;6.80;99.90
7576;DHT22;3829;50.798;4.358;2023-03-16T04:39:53;6.80;99.90
7576;DHT22;3829;50.798;4.358;2023-03-16T04:42:18;6.70;99.90
7576;DHT22;3829;50.798;4.358;2023-03-16T04:44:44;6.70;99.90
7576;DHT22;3829;50.798;4.358;2023-03-16T04:47:14;6.60;99.90
7576;DHT22;3829;50.798;4.358;2023-03-16T04:49:41;6.60;99.90
7576;DHT22;3829;50.798;4.358;2023-03-16T04:52:07;6.60;99.90
7576;DHT22;3829;50.798;4.358;2023-03-16T04:54:33;6.60;99.90
7576;DHT22;3829;50.798;4.358;2023-03-16T04:56:58;6.60;99.90
7576;DHT22;3829;50.798;4.358;2023-03-16T04:59:30;6.50;99.90
7576;DHT22;3829;50.798;4.358;2023-03-16T05:01:56;6.50;99.90
7576;DHT22;3829;50.798;4.358;2023-03-16T05:04:21;6.50;99.90
7576;DHT22;3829;50.798;4.358;2023-03-16T05:06:49;6.50;99.90
7576;DHT22;3829;50.798;4.358;2023-03-16T05:09:14;6.50;99.90
7576;DHT22;3829;50.798;4.358;2023-03-16T05:11:40;6.40;99.90
7576;DHT22;3829;50.798;4.358;2023-03-16T05:14:06;6.50;99.90
7576;DHT22;3829;50.798;4.358;2023-03-16T05:16:31;6.50;99.90
7576;DHT22;3829;50.798;4.358;2023-03-16T05:18:58;6.50;99.90
7576;DHT22;3829;50.798;4.358;2023-03-16T05:21:24;6.50;99.90
7576;DHT22;3829;50.798;4.358;2023-03-16T05:23:49;6.50;99.90
7576;DHT22;3829;50.798;4.358;2023-03-16T05:26:16;6.50;99.90
7576;DHT22;3829;50.798;4.358;2023-03-16T05:28:43;6.50;99.90
7576;DHT22;3829;50.798;4.358;2023-03-16T05:31:09;6.50;99.90
7576;DHT22;3829;50.798;4.358;2023-03-16T05:33:35;6.50;99.90
7576;DHT22;3829;50.798;4.358;2023-03-16T05:36:01;6.60;99.90
7576;DHT22;3829;50.798;4.358;2023-03-16T05:38:28;6.60;99.90
7576;DHT22;3829;50.798;4.358;2023-03-16T05:40:54;6.60;99.90
7576;DHT22;3829;50.798;4.358;2023-03-16T05:43:21;6.60;99.90
7576;DHT22;3829;50.798;4.358;2023-03-16T05:45:47;6.70;99.90
7576;DHT22;3829;50.798;4.358;2023-03-16T05:48:13;6.70;99.90
7576;DHT22;3829;50.798;4.358;2023-03-16T05:50:40;6.70;99.90
7576;DHT22;3829;50.798;4.358;2023-03-16T05:53:06;6.70;99.90
7576;DHT22;3829;50.798;4.358;2023-03-16T05:55:33;6.70;99.90
7576;DHT22;3829;50.798;4.358;2023-03-16T05:57:59;6.70;99.90
7576;DHT22;3829;50.798;4.358;2023-03-16T06:00:25;6.70;99.90
7576;DHT22;3829;50.798;4.358;2023-03-16T06:02:51;6.70;99.90
7576;DHT22;3829;50.798;4.358;2023-03-16T06:05:19;6.80;99.90
7576;DHT22;3829;50.798;4.358;2023-03-16T06:07:46;6.70;99.90
7576;DHT22;3829;50.798;4.358;2023-03-16T06:10:13;6.70;99.90
7576;DHT22;3829;50.798;4.358;2023-03-16T06:12:39;6.80;99.90
7576;DHT22;3829;50.798;4.358;2023-03-16T06:15:06;6.80;99.90
7576;DHT22;3829;50.798;4.358;2023-03-16T06:17:33;6.80;99.90
7576;DHT22;3829;50.798;4.358;2023-03-16T06:19:59;6.80;99.90
7576;DHT22;3829;50.798;4.358;2023-03-16T06:22:24;6.80;99.90
7576;DHT22;3829;50.798;4.358;2023-03-16T06:24:50;6.80;99.90
7576;DHT22;3829;50.798;4.358;2023-03-16T06:27:16;6.80;99.90
7576;DHT22;3829;50.798;4.358;2023-03-16T06:29:45;6.90;99.90
7576;DHT22;3829;50.798;4.358;2023-03-16T06:32:11;6.90;99.90
7576;DHT22;3829;50.798;4.358;2023-03-16T06:34:37;6.90;99.90
7576;DHT22;3829;50.798;4.358;2023-03-16T06:37:03;6.90;99.90
7576;DHT22;3829;50.798;4.358;2023-03-16T06:39:29;6.80;99.90
7576;DHT22;3829;50.798;4.358;2023-03-16T06:41:55;6.90;99.90
7576;DHT22;3829;50.798;4.358;2023-03-16T06:44:21;6.80;99.90
7576;DHT22;3829;50.798;4.358;2023-03-16T06:46:46;6.90;99.90
7576;DHT22;3829;50.798;4.358;2023-03-16T06:49:12;6.90;99.90
7576;DHT22;3829;50.798;4.358;2023-03-16T06:51:37;6.90;99.90
7576;DHT22;3829;50.798;4.358;2023-03-16T06:54:03;7.00;99.90
7576;DHT22;3829;50.798;4.358;2023-03-16T06:56:28;7.00;99.90
7576;DHT22;3829;50.798;4.358;2023-03-16T06:58:56;7.00;99.90
7576;DHT22;3829;50.798;4.358;2023-03-16T07:01:22;7.00;99.90
7576;DHT22;3829;50.798;4.358;2023-03-16T07:03:48;7.10;99.90
7576;DHT22;3829;50.798;4.358;2023-03-16T07:06:14;7.00;99.90
7576;DHT22;3829;50.798;4.358;2023-03-16T07:08:39;7.10;99.90
7576;DHT22;3829;50.798;4.358;2023-03-16T07:11:07;7.10;99.90
7576;DHT22;3829;50.798;4.358;2023-03-16T07:13:32;7.00;99.90
7576;DHT22;3829;50.798;4.358;2023-03-16T07:16:00;7.00;99.90
7576;DHT22;3829;50.798;4.358;2023-03-16T07:18:25;7.00;99.90
7576;DHT22;3829;50.798;4.358;2023-03-16T07:20:52;7.00;99.90
7576;DHT22;3829;50.798;4.358;2023-03-16T07:23:18;7.00;99.90
7576;DHT22;3829;50.798;4.358;2023-03-16T07:25:44;7.00;99.90
7576;DHT22;3829;50.798;4.358;2023-03-16T07:28:10;7.10;99.90
7576;DHT22;3829;50.798;4.358;2023-03-16T07:30:36;7.20;99.90
7576;DHT22;3829;50.798;4.358;2023-03-16T07:33:02;7.30;99.90
7576;DHT22;3829;50.798;4.358;2023-03-16T07:35:28;7.50;99.90
7576;DHT22;3829;50.798;4.358;2023-03-16T07:37:54;7.50;99.90
7576;DHT22;3829;50.798;4.358;2023-03-16T07:40:19;7.60;99.90
7576;DHT22;3829;50.798;4.358;2023-03-16T07:42:45;7.80;99.90
7576;DHT22;3829;50.798;4.358;2023-03-16T07:45:11;7.90;99.90
7576;DHT22;3829;50.798;4.358;2023-03-16T07:47:37;8.10;99.90
7576;DHT22;3829;50.798;4.358;2023-03-16T07:50:03;8.30;99.90
7576;DHT22;3829;50.798;4.358;2023-03-16T07:52:29;8.30;99.90
7576;DHT22;3829;50.798;4.358;2023-03-16T07:54:55;8.50;99.90
7576;DHT22;3829;50.798;4.358;2023-03-16T07:57:20;8.50;99.90
7576;DHT22;3829;50.798;4.358;2023-03-16T07:59:46;8.60;99.90
7576;DHT22;3829;50.798;4.358;2023-03-16T08:02:15;8.70;99.90
7576;DHT22;3829;50.798;4.358;2023-03-16T08:04:41;8.80;99.90
7576;DHT22;3829;50.798;4.358;2023-03-16T08:07:08;8.80;99.90
7576;DHT22;3829;50.798;4.358;2023-03-16T08:09:34;8.90;99.90
7576;DHT22;3829;50.798;4.358;2023-03-16T08:12:01;8.90;99.90
7576;DHT22;3829;50.798;4.358;2023-03-16T08:14:28;9.00;99.90
7576;DHT22;3829;50.798;4.358;2023-03-16T08:16:54;9.10;99.90
7576;DHT22;3829;50.798;4.358;2023-03-16T08:19:20;9.30;99.90
7576;DHT22;3829;50.798;4.358;2023-03-16T08:21:45;9.30;99.90
7576;DHT22;3829;50.798;4.358;2023-03-16T08:24:11;9.20;99.90
7576;DHT22;3829;50.798;4.358;2023-03-16T08:26:37;9.30;99.90
7576;DHT22;3829;50.798;4.358;2023-03-16T08:29:03;9.40;99.90
7576;DHT22;3829;50.798;4.358;2023-03-16T08:31:28;9.30;99.90
7576;DHT22;3829;50.798;4.358;2023-03-16T08:33:55;9.50;99.90
7576;DHT22;3829;50.798;4.358;2023-03-16T08:36:21;9.50;99.90
7576;DHT22;3829;50.798;4.358;2023-03-16T08:38:48;9.60;99.90
7576;DHT22;3829;50.798;4.358;2023-03-16T08:41:13;9.90;99.90
7576;DHT22;3829;50.798;4.358;2023-03-16T08:43:41;9.90;99.90
7576;DHT22;3829;50.798;4.358;2023-03-16T08:46:07;10.10;99.90
7576;DHT22;3829;50.798;4.358;2023-03-16T08:48:33;10.00;99.90
7576;DHT22;3829;50.798;4.358;2023-03-16T08:51:02;10.10;99.90
7576;DHT22;3829;50.798;4.358;2023-03-16T08:53:28;10.20;99.90
7576;DHT22;3829;50.798;4.358;2023-03-16T08:56:05;10.40;99.90
7576;DHT22;3829;50.798;4.358;2023-03-16T08:58:32;10.80;99.90
7576;DHT22;3829;50.798;4.358;2023-03-16T09:00:59;10.70;99.90
7576;DHT22;3829;50.798;4.358;2023-03-16T09:03:25;10.50;99.90
7576;DHT22;3829;50.798;4.358;2023-03-16T09:05:52;10.50;99.90
7576;DHT22;3829;50.798;4.358;2023-03-16T09:08:18;10.80;99.90
7576;DHT22;3829;50.798;4.358;2023-03-16T09:10:44;10.70;99.90
7576;DHT22;3829;50.798;4.358;2023-03-16T09:13:11;10.90;99.90
7576;DHT22;3829;50.798;4.358;2023-03-16T09:15:37;11.00;99.90
7576;DHT22;3829;50.798;4.358;2023-03-16T09:18:03;10.90;99.90
7576;DHT22;3829;50.798;4.358;2023-03-16T09:20:30;11.00;99.90
7576;DHT22;3829;50.798;4.358;2023-03-16T09:22:56;11.00;99.90
7576;DHT22;3829;50.798;4.358;2023-03-16T09:25:23;10.90;99.90
7576;DHT22;3829;50.798;4.358;2023-03-16T09:27:52;11.20;99.90
7576;DHT22;3829;50.798;4.358;2023-03-16T09:30:18;11.20;99.90
7576;DHT22;3829;50.798;4.358;2023-03-16T09:32:44;11.20;99.90
7576;DHT22;3829;50.798;4.358;2023-03-16T09:35:13;11.30;99.90
7576;DHT22;3829;50.798;4.358;2023-03-16T09:37:39;11.30;99.90
7576;DHT22;3829;50.798;4.358;2023-03-16T09:40:05;11.30;99.90
7576;DHT22;3829;50.798;4.358;2023-03-16T09:42:42;11.30;99.90
7576;DHT22;3829;50.798;4.358;2023-03-16T09:47:51;11.40;99.90
7576;DHT22;3829;50.798;4.358;2023-03-16T09:50:32;11.50;99.90
7576;DHT22;3829;50.798;4.358;2023-03-16T09:53:26;11.40;99.90
7576;DHT22;3829;50.798;4.358;2023-03-16T09:56:05;11.70;99.90
7576;DHT22;3829;50.798;4.358;2023-03-16T09:58:32;11.90;99.90
7576;DHT22;3829;50.798;4.358;2023-03-16T10:01:22;12.10;99.90
7576;DHT22;3829;50.798;4.358;2023-03-16T10:12:13;12.00;99.90
7576;DHT22;3829;50.798;4.358;2023-03-16T10:14:56;12.10;99.90
7576;DHT22;3829;50.798;4.358;2023-03-16T10:17:29;12.30;99.90
7576;DHT22;3829;50.798;4.358;2023-03-16T10:20:13;12.30;99.90
7576;DHT22;3829;50.798;4.358;2023-03-16T10:22:43;12.30;99.90
7576;DHT22;3829;50.798;4.358;2023-03-16T10:25:17;12.60;99.90
7576;DHT22;3829;50.798;4.358;2023-03-16T10:27:45;12.70;99.90
7576;DHT22;3829;50.798;4.358;2023-03-16T10:30:25;12.90;99.90
7576;DHT22;3829;50.798;4.358;2023-03-16T10:32:52;12.90;99.90
7576;DHT22;3829;50.798;4.358;2023-03-16T10:35:57;12.90;99.90
7576;DHT22;3829;50.798;4.358;2023-03-16T10:38:45;12.90;99.90
7576;DHT22;3829;50.798;4.358;2023-03-16T10:41:18;13.00;99.90
7576;DHT22;3829;50.798;4.358;2023-03-16T10:43:54;13.00;99.90
7576;DHT22;3829;50.798;4.358;2023-03-16T10:46:21;13.00;99.90
7576;DHT22;3829;50.798;4.358;2023-03-16T10:48:53;13.10;99.90
7576;DHT22;3829;50.798;4.358;2023-03-16T10:51:23;13.10;99.90
7576;DHT22;3829;50.798;4.358;2023-03-16T10:53:50;13.20;99.90
7576;DHT22;3829;50.798;4.358;2023-03-16T10:56:23;13.50;99.90
7576;DHT22;3829;50.798;4.358;2023-03-16T10:58:49;13.50;99.90
7576;DHT22;3829;50.798;4.358;2023-03-16T11:01:34;13.60;99.90
7576;DHT22;3829;50.798;4.358;2023-03-16T11:04:00;13.80;99.90
7576;DHT22;3829;50.798;4.358;2023-03-16T11:06:29;13.80;99.90
7576;DHT22;3829;50.798;4.358;2023-03-16T11:09:23;13.80;99.90
7576;DHT22;3829;50.798;4.358;2023-03-16T11:11:50;14.10;99.90
7576;DHT22;3829;50.798;4.358;2023-03-16T11:14:19;14.30;99.90
7576;DHT22;3829;50.798;4.358;2023-03-16T11:17:27;13.90;99.90
7576;DHT22;3829;50.798;4.358;2023-03-16T11:19:55;13.80;99.90
7576;DHT22;3829;50.798;4.358;2023-03-16T11:22:23;13.80;99.90
7576;DHT22;3829;50.798;4.358;2023-03-16T11:27:29;13.90;99.90
7576;DHT22;3829;50.798;4.358;2023-03-16T11:30:27;14.00;99.90
7576;DHT22;3829;50.798;4.358;2023-03-16T11:32:54;14.20;99.90
7576;DHT22;3829;50.798;4.358;2023-03-16T11:40:40;14.10;99.90
7576;DHT22;3829;50.798;4.358;2023-03-16T11:56:49;14.10;99.90
7576;DHT22;3829;50.798;4.358;2023-03-16T12:09:49;14.20;99.90
7576;DHT22;3829;50.798;4.358;2023-03-16T12:17:40;14.30;99.90
7576;DHT22;3829;50.798;4.358;2023-03-16T12:20:17;14.20;99.90
7576;DHT22;3829;50.798;4.358;2023-03-16T12:22:58;14.10;99.90
7576;DHT22;3829;50.798;4.358;2023-03-16T12:25:30;14.00;99.90
7576;DHT22;3829;50.798;4.358;2023-03-16T12:27:58;14.10;99.90
7576;DHT22;3829;50.798;4.358;2023-03-16T12:30:51;14.00;99.90
7576;DHT22;3829;50.798;4.358;2023-03-16T12:43:53;14.60;99.90
7576;DHT22;3829;50.798;4.358;2023-03-16T12:49:04;14.50;99.90
7576;DHT22;3829;50.798;4.358;2023-03-16T12:51:35;14.50;99.90
7576;DHT22;3829;50.798;4.358;2023-03-16T12:54:02;14.50;99.90
7576;DHT22;3829;50.798;4.358;2023-03-16T12:59:00;14.40;99.90
7576;DHT22;3829;50.798;4.358;2023-03-16T13:01:28;14.40;99.90
7576;DHT22;3829;50.798;4.358;2023-03-16T13:04:10;14.40;99.90
7576;DHT22;3829;50.798;4.358;2023-03-16T13:06:40;14.50;99.90
7576;DHT22;3829;50.798;4.358;2023-03-16T13:09:06;14.60;99.90
7576;DHT22;3829;50.798;4.358;2023-03-16T13:11:43;14.50;99.90
7576;DHT22;3829;50.798;4.358;2023-03-16T13:14:40;14.70;99.90
7576;DHT22;3829;50.798;4.358;2023-03-16T13:20:24;14.80;99.90
7576;DHT22;3829;50.798;4.358;2023-03-16T13:23:45;15.00;99.90
7576;DHT22;3829;50.798;4.358;2023-03-16T13:25:44;15.20;99.90
7576;DHT22;3829;50.798;4.358;2023-03-16T13:28:14;15.30;99.90
7576;DHT22;3829;50.798;4.358;2023-03-16T13:30:45;15.20;99.90
7576;DHT22;3829;50.798;4.358;2023-03-16T13:35:40;15.10;99.90
7576;DHT22;3829;50.798;4.358;2023-03-16T13:38:12;15.00;99.90
7576;DHT22;3829;50.798;4.358;2023-03-16T13:40:46;15.20;99.90
7576;DHT22;3829;50.798;4.358;2023-03-16T13:43:17;15.20;99.90
7576;DHT22;3829;50.798;4.358;2023-03-16T13:45:43;15.10;99.90
7576;DHT22;3829;50.798;4.358;2023-03-16T13:48:12;15.10;99.90
7576;DHT22;3829;50.798;4.358;2023-03-16T13:50:39;15.10;99.90
7576;DHT22;3829;50.798;4.358;2023-03-16T13:53:23;15.20;99.90
7576;DHT22;3829;50.798;4.358;2023-03-16T13:55:50;15.20;99.90
7576;DHT22;3829;50.798;4.358;2023-03-16T14:00:48;15.50;99.90
7576;DHT22;3829;50.798;4.358;2023-03-16T14:03:18;15.40;99.90
7576;DHT22;3829;50.798;4.358;2023-03-16T14:05:49;15.30;99.90
7576;DHT22;3829;50.798;4.358;2023-03-16T14:08:20;15.30;99.90
7576;DHT22;3829;50.798;4.358;2023-03-16T14:10:46;15.20;99.90
7576;DHT22;3829;50.798;4.358;2023-03-16T14:13:41;15.20;99.90
7576;DHT22;3829;50.798;4.358;2023-03-16T14:16:14;15.30;99.90
7576;DHT22;3829;50.798;4.358;2023-03-16T14:18:44;15.50;99.90
7576;DHT22;3829;50.798;4.358;2023-03-16T14:21:16;15.70;99.90
7576;DHT22;3829;50.798;4.358;2023-03-16T14:23:45;15.50;99.90
7576;DHT22;3829;50.798;4.358;2023-03-16T14:26:14;15.30;99.90
7576;DHT22;3829;50.798;4.358;2023-03-16T14:28:41;15.30;99.90
7576;DHT22;3829;50.798;4.358;2023-03-16T14:31:18;15.40;99.90
7576;DHT22;3829;50.798;4.358;2023-03-16T14:33:45;15.40;99.90
7576;DHT22;3829;50.798;4.358;2023-03-16T14:36:13;15.50;99.90
7576;DHT22;3829;50.798;4.358;2023-03-16T14:38:41;15.70;99.90
7576;DHT22;3829;50.798;4.358;2023-03-16T14:43:46;16.00;99.90
7576;DHT22;3829;50.798;4.358;2023-03-16T14:46:16;16.00;99.90
7576;DHT22;3829;50.798;4.358;2023-03-16T14:48:43;16.10;99.90
7576;DHT22;3829;50.798;4.358;2023-03-16T14:51:12;16.50;99.90
7576;DHT22;3829;50.798;4.358;2023-03-16T14:53:38;16.70;99.90
7576;DHT22;3829;50.798;4.358;2023-03-16T14:56:10;17.00;99.90
7576;DHT22;3829;50.798;4.358;2023-03-16T14:58:38;17.40;99.90
7576;DHT22;3829;50.798;4.358;2023-03-16T15:01:04;17.70;99.90
7576;DHT22;3829;50.798;4.358;2023-03-16T15:03:33;18.00;99.90
7576;DHT22;3829;50.798;4.358;2023-03-16T15:06:00;17.90;99.90
7576;DHT22;3829;50.798;4.358;2023-03-16T15:08:29;17.10;99.90
7576;DHT22;3829;50.798;4.358;2023-03-16T15:11:04;16.80;99.90
7576;DHT22;3829;50.798;4.358;2023-03-16T15:13:31;16.20;99.90
7576;DHT22;3829;50.798;4.358;2023-03-16T15:16:11;16.10;99.90
7576;DHT22;3829;50.798;4.358;2023-03-16T15:18:38;15.90;99.90
7576;DHT22;3829;50.798;4.358;2023-03-16T15:21:19;15.60;99.90
7576;DHT22;3829;50.798;4.358;2023-03-16T15:23:46;15.70;99.90
7576;DHT22;3829;50.798;4.358;2023-03-16T15:26:20;15.60;99.90
7576;DHT22;3829;50.798;4.358;2023-03-16T15:28:46;15.70;99.90
7576;DHT22;3829;50.798;4.358;2023-03-16T15:31:13;15.80;99.90
7576;DHT22;3829;50.798;4.358;2023-03-16T15:33:39;16.10;99.90
7576;DHT22;3829;50.798;4.358;2023-03-16T15:36:13;16.90;99.90
7576;DHT22;3829;50.798;4.358;2023-03-16T15:38:42;17.00;99.90
7576;DHT22;3829;50.798;4.358;2023-03-16T15:41:12;16.70;99.90
7576;DHT22;3829;50.798;4.358;2023-03-16T15:43:38;17.10;99.90
7576;DHT22;3829;50.798;4.358;2023-03-16T15:46:04;17.50;99.90
7576;DHT22;3829;50.798;4.358;2023-03-16T15:48:31;17.90;99.90
7576;DHT22;3829;50.798;4.358;2023-03-16T15:50:59;17.60;99.90
7576;DHT22;3829;50.798;4.358;2023-03-16T15:56:02;16.30;99.90
7576;DHT22;3829;50.798;4.358;2023-03-16T15:58:30;16.10;99.90
7576;DHT22;3829;50.798;4.358;2023-03-16T16:00:57;16.00;99.90
7576;DHT22;3829;50.798;4.358;2023-03-16T16:03:24;15.80;99.90
7576;DHT22;3829;50.798;4.358;2023-03-16T16:05:51;15.70;99.90
7576;DHT22;3829;50.798;4.358;2023-03-16T16:08:17;15.70;99.90
7576;DHT22;3829;50.798;4.358;2023-03-16T16:10:43;15.70;99.90
7576;DHT22;3829;50.798;4.358;2023-03-16T16:13:15;15.80;99.90
7576;DHT22;3829;50.798;4.358;2023-03-16T16:15:42;15.70;99.90
7576;DHT22;3829;50.798;4.358;2023-03-16T16:20:56;15.50;99.90
7576;DHT22;3829;50.798;4.358;2023-03-16T16:23:22;15.40;99.90
7576;DHT22;3829;50.798;4.358;2023-03-16T16:25:49;15.10;99.90
7576;DHT22;3829;50.798;4.358;2023-03-16T16:28:24;14.90;99.90
7576;DHT22;3829;50.798;4.358;2023-03-16T16:30:52;14.70;99.90
7576;DHT22;3829;50.798;4.358;2023-03-16T16:33:30;14.60;99.90
7576;DHT22;3829;50.798;4.358;2023-03-16T16:35:59;14.50;99.90
7576;DHT22;3829;50.798;4.358;2023-03-16T16:38:26;14.50;99.90
7576;DHT22;3829;50.798;4.358;2023-03-16T16:40:53;14.40;99.90
7576;DHT22;3829;50.798;4.358;2023-03-16T16:45:54;14.30;99.90
7576;DHT22;3829;50.798;4.358;2023-03-16T16:48:28;14.20;99.90
7576;DHT22;3829;50.798;4.358;2023-03-16T16:50:54;14.10;99.90
7576;DHT22;3829;50.798;4.358;2023-03-16T16:53:20;14.00;99.90
7576;DHT22;3829;50.798;4.358;2023-03-16T16:55:46;14.00;99.90
7576;DHT22;3829;50.798;4.358;2023-03-16T16:58:11;13.90;99.90
7576;DHT22;3829;50.798;4.358;2023-03-16T17:00:37;13.90;99.90
7576;DHT22;3829;50.798;4.358;2023-03-16T17:03:04;13.90;99.90
7576;DHT22;3829;50.798;4.358;2023-03-16T17:05:43;13.90;99.90
7576;DHT22;3829;50.798;4.358;2023-03-16T17:08:10;13.80;99.90
7576;DHT22;3829;50.798;4.358;2023-03-16T17:10:36;13.90;99.90
7576;DHT22;3829;50.798;4.358;2023-03-16T17:13:03;13.80;99.90
7576;DHT22;3829;50.798;4.358;2023-03-16T17:15:30;13.70;99.90
7576;DHT22;3829;50.798;4.358;2023-03-16T17:18:01;13.70;99.90
7576;DHT22;3829;50.798;4.358;2023-03-16T17:20:28;13.60;99.90
7576;DHT22;3829;50.798;4.358;2023-03-16T17:22:56;13.60;99.90
7576;DHT22;3829;50.798;4.358;2023-03-16T17:25:22;13.50;99.90
7576;DHT22;3829;50.798;4.358;2023-03-16T17:27:49;13.40;99.90
7576;DHT22;3829;50.798;4.358;2023-03-16T17:30:25;13.30;99.90
7576;DHT22;3829;50.798;4.358;2023-03-16T17:32:54;13.20;99.90
7576;DHT22;3829;50.798;4.358;2023-03-16T17:35:21;13.30;99.90
7576;DHT22;3829;50.798;4.358;2023-03-16T17:37:47;13.10;99.90
7576;DHT22;3829;50.798;4.358;2023-03-16T17:40:18;13.00;99.90
7576;DHT22;3829;50.798;4.358;2023-03-16T17:42:45;13.00;99.90
7576;DHT22;3829;50.798;4.358;2023-03-16T17:45:23;12.90;99.90
7576;DHT22;3829;50.798;4.358;2023-03-16T17:47:50;12.80;99.90